sensor_id;sensor_type;location;lat;lon;timestamp;P1;durP1;ratioP1;P2;durP2;ratioP2
56299;SDS011;42209;6.376;-10.782;2023-02-28T00:01:31;15.60;;;7.78;;
56299;SDS011;42209;6.376;-10.782;2023-02-28T00:04:00;12.38;;;7.55;;
56299;SDS011;42209;6.376;-10.782;2023-02-28T00:06:28;12.25;;;7.38;;
56299;SDS011;42209;6.376;-10.782;2023-02-28T00:11:25;13.13;;;7.78;;
56299;SDS011;42209;6.376;-10.782;2023-02-28T00:13:53;11.98;;;7.10;;
56299;SDS011;42209;6.376;-10.782;2023-02-28T00:21:19;11.77;;;6.20;;
56299;SDS011;42209;6.376;-10.782;2023-02-28T00:23:48;13.27;;;7.20;;
56299;SDS011;42209;6.376;-10.782;2023-02-28T00:28:48;12.98;;;7.90;;
56299;SDS011;42209;6.376;-10.782;2023-02-28T00:31:16;12.25;;;7.40;;
56299;SDS011;42209;6.376;-10.782;2023-02-28T00:33:47;17.83;;;8.15;;
56299;SDS011;42209;6.376;-10.782;2023-02-28T00:38:43;16.05;;;8.13;;
56299;SDS011;42209;6.376;-10.782;2023-02-28T00:41:11;11.38;;;6.40;;
56299;SDS011;42209;6.376;-10.782;2023-02-28T00:46:10;12.75;;;7.35;;
56299;SDS011;42209;6.376;-10.782;2023-02-28T00:48:38;16.13;;;7.60;;
56299;SDS011;42209;6.376;-10.782;2023-02-28T00:51:07;15.48;;;8.07;;
56299;SDS011;42209;6.376;-10.782;2023-02-28T00:56:04;13.55;;;8.35;;
56299;SDS011;42209;6.376;-10.782;2023-02-28T00:58:33;14.57;;;7.97;;
56299;SDS011;42209;6.376;-10.782;2023-02-28T01:03:30;11.57;;;6.53;;
56299;SDS011;42209;6.376;-10.782;2023-02-28T01:05:58;14.40;;;7.30;;
56299;SDS011;42209;6.376;-10.782;2023-02-28T01:08:26;13.00;;;6.88;;
56299;SDS011;42209;6.376;-10.782;2023-02-28T01:10:55;12.43;;;7.07;;
56299;SDS011;42209;6.376;-10.782;2023-02-28T01:13:23;13.38;;;7.20;;
56299;SDS011;42209;6.376;-10.782;2023-02-28T01:15:53;13.30;;;7.72;;
56299;SDS011;42209;6.376;-10.782;2023-02-28T01:18:23;11.40;;;6.82;;
56299;SDS011;42209;6.376;-10.782;2023-02-28T01:20:52;10.70;;;7.68;;
56299;SDS011;42209;6.376;-10.782;2023-02-28T01:23:21;10.13;;;5.82;;
56299;SDS011;42209;6.376;-10.782;2023-02-28T01:25:50;13.88;;;6.57;;
56299;SDS011;42209;6.376;-10.782;2023-02-28T01:28:19;12.68;;;7.13;;
56299;SDS011;42209;6.376;-10.782;2023-02-28T01:30:49;13.35;;;6.70;;
56299;SDS011;42209;6.376;-10.782;2023-02-28T01:33:19;11.68;;;5.85;;
56299;SDS011;42209;6.376;-10.782;2023-02-28T01:35:47;10.57;;;5.72;;
56299;SDS011;42209;6.376;-10.782;2023-02-28T01:40:49;12.20;;;6.65;;
56299;SDS011;42209;6.376;-10.782;2023-02-28T01:43:25;10.75;;;6.00;;
56299;SDS011;42209;6.376;-10.782;2023-02-28T01:45:58;12.85;;;6.75;;
56299;SDS011;42209;6.376;-10.782;2023-02-28T01:50:59;12.68;;;6.55;;
56299;SDS011;42209;6.376;-10.782;2023-02-28T01:53:33;10.55;;;5.80;;
56299;SDS011;42209;6.376;-10.782;2023-02-28T01:56:07;14.02;;;6.53;;
56299;SDS011;42209;6.376;-10.782;2023-02-28T01:58:39;12.00;;;6.15;;
56299;SDS011;42209;6.376;-10.782;2023-02-28T02:01:07;11.20;;;5.68;;
56299;SDS011;42209;6.376;-10.782;2023-02-28T02:06:04;10.57;;;5.93;;
56299;SDS011;42209;6.376;-10.782;2023-02-28T02:08:34;11.52;;;6.47;;
56299;SDS011;42209;6.376;-10.782;2023-02-28T02:11:07;14.20;;;6.93;;
56299;SDS011;42209;6.376;-10.782;2023-02-28T02:13:45;13.93;;;7.28;;
56299;SDS011;42209;6.376;-10.782;2023-02-28T02:24:14;11.30;;;6.13;;
56299;SDS011;42209;6.376;-10.782;2023-02-28T02:30:14;15.77;;;6.85;;
56299;SDS011;42209;6.376;-10.782;2023-02-28T02:33:06;13.07;;;6.65;;
56299;SDS011;42209;6.376;-10.782;2023-02-28T02:36:07;13.60;;;7.90;;
56299;SDS011;42209;6.376;-10.782;2023-02-28T02:39:31;18.85;;;8.45;;
56299;SDS011;42209;6.376;-10.782;2023-02-28T02:41:46;14.77;;;7.78;;
56299;SDS011;42209;6.376;-10.782;2023-02-28T02:44:38;15.43;;;8.30;;
56299;SDS011;42209;6.376;-10.782;2023-02-28T02:47:12;13.15;;;7.18;;
56299;SDS011;42209;6.376;-10.782;2023-02-28T02:49:55;14.75;;;8.35;;
56299;SDS011;42209;6.376;-10.782;2023-02-28T02:52:48;17.20;;;8.23;;
56299;SDS011;42209;6.376;-10.782;2023-02-28T02:55:18;15.95;;;8.50;;
56299;SDS011;42209;6.376;-10.782;2023-02-28T02:57:54;17.27;;;8.02;;
56299;SDS011;42209;6.376;-10.782;2023-02-28T03:00:31;15.07;;;8.60;;
56299;SDS011;42209;6.376;-10.782;2023-02-28T03:03:03;15.65;;;8.35;;
56299;SDS011;42209;6.376;-10.782;2023-02-28T03:05:36;12.55;;;8.00;;
56299;SDS011;42209;6.376;-10.782;2023-02-28T03:08:15;12.35;;;6.90;;
56299;SDS011;42209;6.376;-10.782;2023-02-28T03:10:45;15.02;;;8.77;;
56299;SDS011;42209;6.376;-10.782;2023-02-28T03:30:41;13.45;;;6.32;;
56299;SDS011;42209;6.376;-10.782;2023-02-28T03:33:36;16.60;;;8.20;;
56299;SDS011;42209;6.376;-10.782;2023-02-28T03:36:13;14.75;;;7.70;;
56299;SDS011;42209;6.376;-10.782;2023-02-28T03:38:56;12.82;;;7.57;;
56299;SDS011;42209;6.376;-10.782;2023-02-28T03:42:11;12.05;;;7.18;;
56299;SDS011;42209;6.376;-10.782;2023-02-28T03:44:41;13.38;;;7.20;;
56299;SDS011;42209;6.376;-10.782;2023-02-28T03:47:32;17.73;;;8.10;;
56299;SDS011;42209;6.376;-10.782;2023-02-28T03:50:18;14.30;;;7.65;;
56299;SDS011;42209;6.376;-10.782;2023-02-28T03:52:53;18.43;;;7.67;;
56299;SDS011;42209;6.376;-10.782;2023-02-28T03:56:05;12.48;;;6.60;;
56299;SDS011;42209;6.376;-10.782;2023-02-28T03:58:49;12.23;;;6.47;;
56299;SDS011;42209;6.376;-10.782;2023-02-28T04:04:05;14.35;;;7.05;;
56299;SDS011;42209;6.376;-10.782;2023-02-28T04:06:35;14.82;;;7.72;;
56299;SDS011;42209;6.376;-10.782;2023-02-28T04:09:04;14.90;;;7.05;;
56299;SDS011;42209;6.376;-10.782;2023-02-28T04:11:38;14.40;;;7.80;;
56299;SDS011;42209;6.376;-10.782;2023-02-28T04:14:09;13.68;;;6.93;;
56299;SDS011;42209;6.376;-10.782;2023-02-28T04:16:40;14.25;;;8.00;;
56299;SDS011;42209;6.376;-10.782;2023-02-28T04:19:10;11.52;;;6.57;;
56299;SDS011;42209;6.376;-10.782;2023-02-28T04:21:40;11.90;;;7.03;;
56299;SDS011;42209;6.376;-10.782;2023-02-28T04:24:12;10.45;;;6.50;;
56299;SDS011;42209;6.376;-10.782;2023-02-28T04:26:42;13.48;;;6.43;;
56299;SDS011;42209;6.376;-10.782;2023-02-28T04:29:13;11.60;;;5.82;;
56299;SDS011;42209;6.376;-10.782;2023-02-28T04:31:45;10.27;;;6.30;;
56299;SDS011;42209;6.376;-10.782;2023-02-28T04:34:15;11.80;;;6.82;;
56299;SDS011;42209;6.376;-10.782;2023-02-28T04:36:43;8.98;;;5.93;;
56299;SDS011;42209;6.376;-10.782;2023-02-28T04:41:40;14.13;;;6.40;;
56299;SDS011;42209;6.376;-10.782;2023-02-28T04:44:08;9.05;;;6.32;;
56299;SDS011;42209;6.376;-10.782;2023-02-28T04:49:04;11.27;;;6.47;;
56299;SDS011;42209;6.376;-10.782;2023-02-28T04:54:01;11.45;;;5.80;;
56299;SDS011;42209;6.376;-10.782;2023-02-28T04:56:29;9.50;;;5.25;;
56299;SDS011;42209;6.376;-10.782;2023-02-28T05:01:29;9.68;;;5.65;;
56299;SDS011;42209;6.376;-10.782;2023-02-28T05:04:00;9.68;;;6.25;;
56299;SDS011;42209;6.376;-10.782;2023-02-28T05:06:30;9.90;;;5.35;;
56299;SDS011;42209;6.376;-10.782;2023-02-28T05:09:00;6.43;;;5.15;;
56299;SDS011;42209;6.376;-10.782;2023-02-28T05:14:03;11.15;;;6.43;;
56299;SDS011;42209;6.376;-10.782;2023-02-28T05:16:34;9.40;;;5.95;;
56299;SDS011;42209;6.376;-10.782;2023-02-28T18:30:03;4.57;;;1.40;;
56299;SDS011;42209;6.376;-10.782;2023-02-28T18:32:32;3.30;;;1.17;;
56299;SDS011;42209;6.376;-10.782;2023-02-28T18:35:03;5.53;;;1.50;;
56299;SDS011;42209;6.376;-10.782;2023-02-28T18:37:31;3.72;;;1.23;;
56299;SDS011;42209;6.376;-10.782;2023-02-28T18:42:27;2.72;;;1.45;;
56299;SDS011;42209;6.376;-10.782;2023-02-28T18:47:23;2.92;;;1.10;;
56299;SDS011;42209;6.376;-10.782;2023-02-28T18:52:20;3.92;;;0.98;;
56299;SDS011;42209;6.376;-10.782;2023-02-28T18:54:48;6.88;;;1.30;;
56299;SDS011;42209;6.376;-10.782;2023-02-28T18:57:16;4.28;;;1.52;;
56299;SDS011;42209;6.376;-10.782;2023-02-28T18:59:44;4.97;;;1.65;;
56299;SDS011;42209;6.376;-10.782;2023-02-28T19:02:13;4.45;;;1.40;;
56299;SDS011;42209;6.376;-10.782;2023-02-28T19:04:41;5.55;;;1.60;;
56299;SDS011;42209;6.376;-10.782;2023-02-28T19:09:37;4.72;;;1.30;;
56299;SDS011;42209;6.376;-10.782;2023-02-28T19:14:34;3.33;;;1.27;;
56299;SDS011;42209;6.376;-10.782;2023-02-28T19:17:02;2.22;;;1.00;;
56299;SDS011;42209;6.376;-10.782;2023-02-28T19:19:31;3.13;;;1.05;;
56299;SDS011;42209;6.376;-10.782;2023-02-28T19:21:59;5.40;;;1.85;;
56299;SDS011;42209;6.376;-10.782;2023-02-28T19:24:27;3.28;;;1.40;;
56299;SDS011;42209;6.376;-10.782;2023-02-28T19:26:56;5.43;;;1.30;;
56299;SDS011;42209;6.376;-10.782;2023-02-28T19:34:21;3.28;;;0.73;;
56299;SDS011;42209;6.376;-10.782;2023-02-28T19:39:17;4.63;;;1.15;;
56299;SDS011;42209;6.376;-10.782;2023-02-28T19:44:13;3.90;;;1.02;;
56299;SDS011;42209;6.376;-10.782;2023-02-28T19:46:41;4.93;;;1.63;;
56299;SDS011;42209;6.376;-10.782;2023-02-28T19:49:09;4.40;;;1.42;;
56299;SDS011;42209;6.376;-10.782;2023-02-28T19:51:38;3.92;;;1.20;;
56299;SDS011;42209;6.376;-10.782;2023-02-28T19:54:06;2.95;;;0.98;;
56299;SDS011;42209;6.376;-10.782;2023-02-28T19:56:34;3.28;;;1.17;;
56299;SDS011;42209;6.376;-10.782;2023-02-28T20:01:47;4.95;;;1.55;;
56299;SDS011;42209;6.376;-10.782;2023-02-28T20:06:43;2.90;;;0.77;;
56299;SDS011;42209;6.376;-10.782;2023-02-28T20:09:11;2.88;;;1.13;;
56299;SDS011;42209;6.376;-10.782;2023-02-28T20:11:39;2.90;;;0.70;;
56299;SDS011;42209;6.376;-10.782;2023-02-28T20:14:08;3.28;;;1.40;;
56299;SDS011;42209;6.376;-10.782;2023-02-28T20:16:37;4.57;;;1.30;;
56299;SDS011;42209;6.376;-10.782;2023-02-28T20:19:07;5.65;;;1.02;;
56299;SDS011;42209;6.376;-10.782;2023-02-28T20:26:31;4.38;;;1.20;;
56299;SDS011;42209;6.376;-10.782;2023-02-28T20:29:00;4.63;;;1.38;;
56299;SDS011;42209;6.376;-10.782;2023-02-28T20:31:28;4.13;;;1.27;;
56299;SDS011;42209;6.376;-10.782;2023-02-28T20:36:25;3.03;;;1.40;;
56299;SDS011;42209;6.376;-10.782;2023-02-28T20:38:53;2.65;;;1.30;;
56299;SDS011;42209;6.376;-10.782;2023-02-28T20:46:26;3.28;;;1.73;;
56299;SDS011;42209;6.376;-10.782;2023-02-28T20:48:55;5.72;;;1.85;;
56299;SDS011;42209;6.376;-10.782;2023-02-28T20:51:24;2.85;;;1.38;;
56299;SDS011;42209;6.376;-10.782;2023-02-28T20:53:52;4.32;;;1.60;;
56299;SDS011;42209;6.376;-10.782;2023-02-28T20:56:21;3.00;;;1.60;;
56299;SDS011;42209;6.376;-10.782;2023-02-28T20:58:50;4.78;;;1.30;;
56299;SDS011;42209;6.376;-10.782;2023-02-28T21:01:24;3.45;;;1.67;;
56299;SDS011;42209;6.376;-10.782;2023-02-28T21:03:54;3.33;;;2.25;;
56299;SDS011;42209;6.376;-10.782;2023-02-28T21:06:25;4.43;;;2.53;;
56299;SDS011;42209;6.376;-10.782;2023-02-28T21:08:56;4.97;;;2.15;;
56299;SDS011;42209;6.376;-10.782;2023-02-28T21:11:26;7.57;;;2.58;;
56299;SDS011;42209;6.376;-10.782;2023-02-28T21:14:00;5.68;;;2.10;;
56299;SDS011;42209;6.376;-10.782;2023-02-28T21:16:29;5.50;;;2.15;;
56299;SDS011;42209;6.376;-10.782;2023-02-28T21:18:58;6.30;;;2.60;;
56299;SDS011;42209;6.376;-10.782;2023-02-28T21:21:27;6.60;;;3.30;;
56299;SDS011;42209;6.376;-10.782;2023-02-28T21:23:55;5.15;;;2.55;;
56299;SDS011;42209;6.376;-10.782;2023-02-28T21:26:23;5.47;;;3.40;;
56299;SDS011;42209;6.376;-10.782;2023-02-28T21:28:53;5.70;;;3.28;;
56299;SDS011;42209;6.376;-10.782;2023-02-28T21:31:27;4.90;;;2.88;;
56299;SDS011;42209;6.376;-10.782;2023-02-28T21:33:57;6.97;;;3.72;;
56299;SDS011;42209;6.376;-10.782;2023-02-28T21:36:28;7.70;;;4.25;;
56299;SDS011;42209;6.376;-10.782;2023-02-28T21:38:58;5.95;;;3.70;;
56299;SDS011;42209;6.376;-10.782;2023-02-28T21:41:29;7.65;;;3.50;;
56299;SDS011;42209;6.376;-10.782;2023-02-28T21:46:26;5.53;;;3.38;;
56299;SDS011;42209;6.376;-10.782;2023-02-28T21:48:55;6.00;;;3.38;;
56299;SDS011;42209;6.376;-10.782;2023-02-28T21:51:25;6.60;;;4.10;;
56299;SDS011;42209;6.376;-10.782;2023-02-28T21:53:56;6.63;;;3.92;;
56299;SDS011;42209;6.376;-10.782;2023-02-28T21:56:27;5.43;;;3.08;;
56299;SDS011;42209;6.376;-10.782;2023-02-28T21:58:59;6.75;;;4.10;;
56299;SDS011;42209;6.376;-10.782;2023-02-28T22:01:30;5.07;;;3.10;;
56299;SDS011;42209;6.376;-10.782;2023-02-28T22:04:05;5.80;;;3.47;;
56299;SDS011;42209;6.376;-10.782;2023-02-28T22:06:37;7.13;;;3.63;;
56299;SDS011;42209;6.376;-10.782;2023-02-28T22:09:08;6.50;;;3.35;;
56299;SDS011;42209;6.376;-10.782;2023-02-28T22:11:37;7.55;;;4.00;;
56299;SDS011;42209;6.376;-10.782;2023-02-28T22:14:06;5.63;;;4.05;;
56299;SDS011;42209;6.376;-10.782;2023-02-28T22:16:38;7.65;;;3.83;;
56299;SDS011;42209;6.376;-10.782;2023-02-28T22:19:21;6.70;;;3.83;;
56299;SDS011;42209;6.376;-10.782;2023-02-28T22:21:50;5.35;;;3.90;;
56299;SDS011;42209;6.376;-10.782;2023-02-28T22:24:19;7.18;;;3.90;;
56299;SDS011;42209;6.376;-10.782;2023-02-28T22:26:48;8.88;;;5.55;;
56299;SDS011;42209;6.376;-10.782;2023-02-28T22:29:17;8.02;;;4.65;;
56299;SDS011;42209;6.376;-10.782;2023-02-28T22:31:45;6.55;;;3.95;;
56299;SDS011;42209;6.376;-10.782;2023-02-28T22:34:13;7.65;;;4.40;;
56299;SDS011;42209;6.376;-10.782;2023-02-28T22:39:10;7.65;;;3.72;;
56299;SDS011;42209;6.376;-10.782;2023-02-28T22:41:41;7.72;;;3.95;;
56299;SDS011;42209;6.376;-10.782;2023-02-28T22:44:09;8.27;;;4.40;;
56299;SDS011;42209;6.376;-10.782;2023-02-28T22:46:38;8.75;;;4.93;;
56299;SDS011;42209;6.376;-10.782;2023-02-28T22:54:02;8.27;;;5.45;;
56299;SDS011;42209;6.376;-10.782;2023-02-28T22:58:59;9.32;;;4.93;;
56299;SDS011;42209;6.376;-10.782;2023-02-28T23:01:29;9.02;;;5.05;;
56299;SDS011;42209;6.376;-10.782;2023-02-28T23:03:59;10.55;;;5.72;;
56299;SDS011;42209;6.376;-10.782;2023-02-28T23:06:32;11.73;;;6.72;;
56299;SDS011;42209;6.376;-10.782;2023-02-28T23:09:04;10.18;;;5.82;;
56299;SDS011;42209;6.376;-10.782;2023-02-28T23:11:43;9.45;;;5.47;;
56299;SDS011;42209;6.376;-10.782;2023-02-28T23:14:13;10.38;;;6.30;;
56299;SDS011;42209;6.376;-10.782;2023-02-28T23:16:46;9.45;;;6.38;;
56299;SDS011;42209;6.376;-10.782;2023-02-28T23:32:37;12.05;;;7.05;;
56299;SDS011;42209;6.376;-10.782;2023-02-28T23:35:06;10.73;;;5.75;;
56299;SDS011;42209;6.376;-10.782;2023-02-28T23:37:37;8.48;;;5.72;;
56299;SDS011;42209;6.376;-10.782;2023-02-28T23:40:07;11.70;;;5.93;;
56299;SDS011;42209;6.376;-10.782;2023-02-28T23:42:37;10.20;;;5.80;;
56299;SDS011;42209;6.376;-10.782;2023-02-28T23:45:06;9.98;;;5.55;;
56299;SDS011;42209;6.376;-10.782;2023-02-28T23:47:35;10.60;;;5.85;;
56299;SDS011;42209;6.376;-10.782;2023-02-28T23:50:03;9.07;;;6.15;;
56299;SDS011;42209;6.376;-10.782;2023-02-28T23:52:32;11.52;;;6.00;;
56299;SDS011;42209;6.376;-10.782;2023-02-28T23:57:28;10.10;;;5.57;;
56299;SDS011;42209;6.376;-10.782;2023-02-28T23:59:57;8.85;;;5.28;;
